sensor_id;sensor_type;location;lat;lon;timestamp;P1;durP1;ratioP1;P2;durP2;ratioP2
49556;SDS011;35462;45.048;7.666;2023-09-12T00:03:07;11.18;;;9.23;;
49556;SDS011;35462;45.048;7.666;2023-09-12T00:18:26;11.10;;;9.38;;
49556;SDS011;35462;45.048;7.666;2023-09-12T00:33:46;16.08;;;11.30;;
49556;SDS011;35462;45.048;7.666;2023-09-12T00:49:05;16.25;;;12.27;;
49556;SDS011;35462;45.048;7.666;2023-09-12T01:04:26;14.27;;;11.68;;
49556;SDS011;35462;45.048;7.666;2023-09-12T01:19:46;14.00;;;11.90;;
49556;SDS011;35462;45.048;7.666;2023-09-12T01:35:07;16.90;;;13.02;;
49556;SDS011;35462;45.048;7.666;2023-09-12T01:50:27;18.67;;;13.13;;
49556;SDS011;35462;45.048;7.666;2023-09-12T02:05:47;14.07;;;12.57;;
49556;SDS011;35462;45.048;7.666;2023-09-12T02:21:07;18.08;;;13.23;;
49556;SDS011;35462;45.048;7.666;2023-09-12T02:36:28;16.27;;;9.93;;
49556;SDS011;35462;45.048;7.666;2023-09-12T02:51:47;13.50;;;9.63;;
49556;SDS011;35462;45.048;7.666;2023-09-12T03:07:07;10.43;;;9.10;;
49556;SDS011;35462;45.048;7.666;2023-09-12T03:22:26;14.48;;;10.68;;
49556;SDS011;35462;45.048;7.666;2023-09-12T03:37:46;16.30;;;11.07;;
49556;SDS011;35462;45.048;7.666;2023-09-12T03:53:05;16.25;;;12.35;;
49556;SDS011;35462;45.048;7.666;2023-09-12T04:08:25;13.80;;;10.80;;
49556;SDS011;35462;45.048;7.666;2023-09-12T04:23:44;12.82;;;9.25;;
49556;SDS011;35462;45.048;7.666;2023-09-12T04:39:04;15.38;;;11.98;;
49556;SDS011;35462;45.048;7.666;2023-09-12T04:54:25;17.95;;;12.20;;
49556;SDS011;35462;45.048;7.666;2023-09-12T05:09:45;15.82;;;11.43;;
49556;SDS011;35462;45.048;7.666;2023-09-12T05:25:04;16.30;;;11.88;;
49556;SDS011;35462;45.048;7.666;2023-09-12T05:40:24;16.83;;;11.30;;
49556;SDS011;35462;45.048;7.666;2023-09-12T05:55:44;14.27;;;10.95;;
49556;SDS011;35462;45.048;7.666;2023-09-12T06:11:04;12.35;;;9.90;;
49556;SDS011;35462;45.048;7.666;2023-09-12T06:26:23;17.52;;;9.85;;
49556;SDS011;35462;45.048;7.666;2023-09-12T06:41:43;15.40;;;10.52;;
49556;SDS011;35462;45.048;7.666;2023-09-12T06:57:03;18.33;;;12.32;;
49556;SDS011;35462;45.048;7.666;2023-09-12T07:12:22;17.10;;;11.85;;
49556;SDS011;35462;45.048;7.666;2023-09-12T07:27:41;14.70;;;11.25;;
49556;SDS011;35462;45.048;7.666;2023-09-12T07:43:01;12.93;;;10.60;;
49556;SDS011;35462;45.048;7.666;2023-09-12T07:58:21;11.10;;;8.70;;
49556;SDS011;35462;45.048;7.666;2023-09-12T08:13:41;9.35;;;8.35;;
49556;SDS011;35462;45.048;7.666;2023-09-12T08:29:00;11.70;;;7.20;;
49556;SDS011;35462;45.048;7.666;2023-09-12T08:44:20;19.00;;;13.48;;
49556;SDS011;35462;45.048;7.666;2023-09-12T08:59:40;12.90;;;8.55;;
49556;SDS011;35462;45.048;7.666;2023-09-12T09:15:21;10.15;;;7.88;;
49556;SDS011;35462;45.048;7.666;2023-09-12T09:30:42;12.40;;;8.15;;
49556;SDS011;35462;45.048;7.666;2023-09-12T09:46:03;8.98;;;7.25;;
49556;SDS011;35462;45.048;7.666;2023-09-12T10:01:26;12.30;;;8.23;;
49556;SDS011;35462;45.048;7.666;2023-09-12T10:16:47;11.30;;;7.55;;
49556;SDS011;35462;45.048;7.666;2023-09-12T10:32:08;11.88;;;8.45;;
49556;SDS011;35462;45.048;7.666;2023-09-12T10:47:29;9.75;;;8.75;;
49556;SDS011;35462;45.048;7.666;2023-09-12T11:02:49;20.92;;;15.05;;
49556;SDS011;35462;45.048;7.666;2023-09-12T11:18:08;10.27;;;8.35;;
49556;SDS011;35462;45.048;7.666;2023-09-12T11:33:28;10.38;;;7.28;;
49556;SDS011;35462;45.048;7.666;2023-09-12T11:48:48;7.97;;;6.90;;
49556;SDS011;35462;45.048;7.666;2023-09-12T12:04:08;10.00;;;6.93;;
49556;SDS011;35462;45.048;7.666;2023-09-12T12:19:28;11.07;;;7.47;;
49556;SDS011;35462;45.048;7.666;2023-09-12T12:34:48;7.78;;;6.75;;
49556;SDS011;35462;45.048;7.666;2023-09-12T12:50:10;10.27;;;8.13;;
49556;SDS011;35462;45.048;7.666;2023-09-12T13:05:33;12.55;;;6.95;;
49556;SDS011;35462;45.048;7.666;2023-09-12T13:20:53;9.60;;;7.40;;
49556;SDS011;35462;45.048;7.666;2023-09-12T13:36:12;13.10;;;7.15;;
49556;SDS011;35462;45.048;7.666;2023-09-12T13:51:31;10.60;;;7.05;;
49556;SDS011;35462;45.048;7.666;2023-09-12T14:06:51;8.65;;;7.50;;
49556;SDS011;35462;45.048;7.666;2023-09-12T14:22:10;10.00;;;7.80;;
49556;SDS011;35462;45.048;7.666;2023-09-12T14:37:30;9.88;;;7.57;;
49556;SDS011;35462;45.048;7.666;2023-09-12T14:52:50;9.98;;;7.03;;
49556;SDS011;35462;45.048;7.666;2023-09-12T15:08:09;11.85;;;7.38;;
49556;SDS011;35462;45.048;7.666;2023-09-12T15:23:29;9.63;;;7.07;;
49556;SDS011;35462;45.048;7.666;2023-09-12T15:38:49;7.68;;;6.72;;
49556;SDS011;35462;45.048;7.666;2023-09-12T15:54:08;9.68;;;6.60;;
49556;SDS011;35462;45.048;7.666;2023-09-12T16:09:28;14.00;;;6.72;;
49556;SDS011;35462;45.048;7.666;2023-09-12T16:24:47;9.00;;;6.70;;
49556;SDS011;35462;45.048;7.666;2023-09-12T16:40:07;9.85;;;6.18;;
49556;SDS011;35462;45.048;7.666;2023-09-12T16:55:27;8.63;;;7.13;;
49556;SDS011;35462;45.048;7.666;2023-09-12T17:10:46;7.43;;;5.97;;
49556;SDS011;35462;45.048;7.666;2023-09-12T17:26:06;13.95;;;5.03;;
49556;SDS011;35462;45.048;7.666;2023-09-12T17:41:26;8.00;;;4.88;;
49556;SDS011;35462;45.048;7.666;2023-09-12T17:56:45;6.00;;;4.07;;
49556;SDS011;35462;45.048;7.666;2023-09-12T18:12:04;6.57;;;4.45;;
49556;SDS011;35462;45.048;7.666;2023-09-12T18:27:27;9.15;;;5.20;;
49556;SDS011;35462;45.048;7.666;2023-09-12T18:42:46;9.50;;;5.25;;
49556;SDS011;35462;45.048;7.666;2023-09-12T18:58:06;8.73;;;5.68;;
49556;SDS011;35462;45.048;7.666;2023-09-12T19:13:25;10.95;;;7.78;;
49556;SDS011;35462;45.048;7.666;2023-09-12T19:28:45;14.18;;;6.65;;
49556;SDS011;35462;45.048;7.666;2023-09-12T19:44:04;9.05;;;5.88;;
49556;SDS011;35462;45.048;7.666;2023-09-12T19:59:25;11.18;;;5.35;;
49556;SDS011;35462;45.048;7.666;2023-09-12T20:14:45;10.10;;;6.00;;
49556;SDS011;35462;45.048;7.666;2023-09-12T20:30:05;12.45;;;6.10;;
49556;SDS011;35462;45.048;7.666;2023-09-12T20:45:25;6.95;;;5.25;;
49556;SDS011;35462;45.048;7.666;2023-09-12T21:00:44;13.70;;;8.65;;
49556;SDS011;35462;45.048;7.666;2023-09-12T21:16:04;6.55;;;3.85;;
49556;SDS011;35462;45.048;7.666;2023-09-12T21:31:23;4.93;;;3.55;;
49556;SDS011;35462;45.048;7.666;2023-09-12T21:46:43;7.05;;;4.75;;
49556;SDS011;35462;45.048;7.666;2023-09-12T22:02:02;8.70;;;3.78;;
49556;SDS011;35462;45.048;7.666;2023-09-12T22:17:22;5.78;;;3.20;;
49556;SDS011;35462;45.048;7.666;2023-09-12T22:32:43;6.63;;;3.00;;
49556;SDS011;35462;45.048;7.666;2023-09-12T22:48:02;5.00;;;3.83;;
49556;SDS011;35462;45.048;7.666;2023-09-12T23:03:22;6.40;;;3.58;;
49556;SDS011;35462;45.048;7.666;2023-09-12T23:18:41;6.32;;;4.03;;
49556;SDS011;35462;45.048;7.666;2023-09-12T23:34:01;9.32;;;4.18;;
49556;SDS011;35462;45.048;7.666;2023-09-12T23:49:21;6.40;;;3.22;;
